KATL

Atlanta/Hartsfield-Jackson International

Airport
ICAO code
KATL
IATA Code
ATL
Summary
ICAO Region
NAM
ICAO Territory
Location

Atlanta, Georgia

Serving
Atlanta
Elevation
1026 ft
Coordinates
33° 38' 25" N , 84° 25' 38" W
KCC
Airport LOS
Parallel Runway Operation
Metar
KATL 221652Z 22009G21KT 10SM BKN200 BKN250 18/06 A3001 RMK AO2 SLP161 T01830056 $

Description

Primary international airport serving Atlanta, Georgia, USA. The airport is located 10 nm south of the city centre.

SKYbrary Partners:

Safety knowledge contributed by: